Latest METARs, TAFs and NOTAMs for RJAH


---------------------------------------------------------------------------
	(OBSERVATIONS)
RJAH 170300Z 36007KT 9999 FEW010 BKN040 BKN230 05/M05 Q1014=
RJAH 170200Z 35007KT 9999 FEW030 BKN040 BKN230 05/M06 Q1015=
RJAH 170100Z 36009KT 9999 FEW030 BKN050 BKN230 05/M06 Q1015=
---------------------------------------------------------------------------
	(TERMINAL AREA FORECAST)
RJAH 162307Z 1700/1806 02005KT 9999 FEW030 SCT045 BECMG
    1803/1806 20008KT=
---------------------------------------------------------------------------
	(NOTAMS)


RJAH L2609/20 REF JFLIP RAG(PORTABLE BAK-12)2000FT FM RWY 21L
    APCH END-TEMPO INSTL. 31 OCT 14:45 2020 UNTIL 31 JAN 14:45
    2021. CREATED: 31 OCT 15:07 2020

RJAH L2783/20 OBST LGT ON POWER LINE TOWER-U/S DUE TO TROUBLE
    PSN : 360911.0N1402142.0E (NAMEGATA-SHI IN IBARAKI) RMK/OBST
    LGT IN PLACE OF OBST DAY MARKING FOR POWER LINE TOWER. SFC
    - 224FT AMSL, 12 NOV 22:06 2020 UNTIL 29 JAN 00:00 2021.
    CREATED: 12 NOV 22:07 2020

---------------------------------------------------------------------------